Time;durP1;ratioP1;P1;durP2;ratioP2;P2;SDS_P1;SDS_P2;PMS_P1;PMS_P2;Temp;Humidity;BMP_temperature;BMP_pressure;BME280_temperature;BME280_humidity;BME280_pressure;Samples;Min_cycle;Max_cycle;Signal;HPM_P1;HPM_P2
2023/03/14 00:00:52;;;;;;;38.10;20.70;;;;;;;9.19;64.71;98556.30;131707;1254;116203;-72
2023/03/14 00:03:56;;;;;;;26.10;14.00;;;;;;;9.09;64.75;98562.46;131418;1254;114646;-71
2023/03/14 00:06:59;;;;;;;31.60;18.50;;;;;;;9.04;65.06;98566.03;131667;1253;114058;-71
2023/03/14 00:10:08;;;;;;;33.80;17.10;;;;;;;8.99;65.31;98569.59;131687;1254;114644;-71
2023/03/14 00:13:12;;;;;;;28.70;16.10;;;;;;;8.95;65.48;98549.40;131403;1253;127927;-71
2023/03/14 00:16:15;;;;;;;27.50;14.50;;;;;;;8.92;65.42;98540.92;131347;1254;115253;-71
2023/03/14 00:19:18;;;;;;;21.70;13.40;;;;;;;8.88;65.63;98539.97;131737;1257;115252;-71
2023/03/14 00:22:21;;;;;;;26.70;15.80;;;;;;;8.85;65.67;98546.18;131638;1254;114573;-71
2023/03/14 00:25:24;;;;;;;35.80;18.20;;;;;;;8.81;65.57;98548.98;131640;1254;114699;-70
2023/03/14 00:28:28;;;;;;;32.20;18.10;;;;;;;8.75;65.94;98546.33;132006;1253;113468;-70
2023/03/14 00:31:31;;;;;;;28.30;16.40;;;;;;;8.72;66.10;98542.16;131702;1254;114673;-70
2023/03/14 00:34:34;;;;;;;24.90;13.70;;;;;;;8.67;65.98;98530.40;131739;1257;114703;-70
2023/03/14 00:37:38;;;;;;;19.10;10.80;;;;;;;8.64;66.34;98531.49;131669;1253;114730;-70
2023/03/14 00:40:40;;;;;;;20.00;9.80;;;;;;;8.60;66.27;98527.11;131691;1254;114543;-71
2023/03/14 00:43:44;;;;;;;23.10;10.80;;;;;;;8.58;66.31;98527.78;131667;1254;114688;-71
2023/03/14 00:46:47;;;;;;;21.20;10.90;;;;;;;8.60;66.23;98520.36;131480;1253;114722;-70
2023/03/14 00:49:50;;;;;;;21.20;10.70;;;;;;;8.62;66.66;98521.06;131597;1254;115302;-71
2023/03/14 00:52:52;;;;;;;16.70;10.00;;;;;;;8.65;66.86;98528.20;131694;1253;114720;-71
2023/03/14 00:55:55;;;;;;;23.70;10.50;;;;;;;8.68;66.80;98526.77;131688;1254;114667;-71
2023/03/14 00:58:58;;;;;;;24.80;11.20;;;;;;;8.70;67.07;98527.67;131635;1254;114775;-71
2023/03/14 01:02:01;;;;;;;21.40;10.90;;;;;;;8.73;67.16;98551.15;131762;1253;113281;-70
2023/03/14 01:05:07;;;;;;;;;;;;;;;8.74;67.05;98598.89;131735;1253;114735;-70
2023/03/14 01:08:11;;;;;;;18.60;9.70;;;;;;;8.74;67.26;98587.54;131458;1254;114734;-70
2023/03/14 01:11:18;;;;;;;16.90;8.80;;;;;;;8.75;67.29;98579.50;131449;1254;113402;-70
2023/03/14 01:14:20;;;;;;;15.00;8.70;;;;;;;8.78;67.34;98568.20;131446;1253;114643;-70
2023/03/14 01:17:23;;;;;;;18.30;8.80;;;;;;;8.81;67.43;98561.80;131623;1253;114728;-70
2023/03/14 01:20:26;;;;;;;19.00;8.10;;;;;;;8.85;67.68;98549.60;131648;1253;113145;-70
2023/03/14 01:23:29;;;;;;;14.00;7.30;;;;;;;8.87;67.64;98533.74;131692;1253;114770;-71
2023/03/14 01:26:33;;;;;;;11.90;7.10;;;;;;;8.91;67.68;98542.55;131384;1255;471563;-71
2023/03/14 01:29:36;;;;;;;16.50;6.90;;;;;;;8.97;67.84;98548.02;131703;1253;114703;-71
2023/03/14 01:32:39;;;;;;;12.70;6.50;;;;;;;9.03;67.76;98542.09;131606;1254;114719;-71
2023/03/14 01:35:42;;;;;;;9.50;6.40;;;;;;;9.08;67.71;98539.92;131637;1253;113513;-71
2023/03/14 01:38:45;;;;;;;13.30;6.60;;;;;;;9.15;67.77;98542.50;131641;1253;114718;-70
2023/03/14 01:41:48;;;;;;;14.50;7.30;;;;;;;9.20;67.85;98530.73;131672;1257;114820;-70
2023/03/14 01:44:57;;;;;;;14.00;7.50;;;;;;;9.25;68.06;98511.98;131644;1254;114657;-70
2023/03/14 01:47:59;;;;;;;13.20;7.70;;;;;;;9.30;68.42;98503.65;131607;1253;128855;-71
2023/03/14 01:51:03;;;;;;;10.60;6.90;;;;;;;9.34;68.91;98497.67;131706;1254;114059;-71
2023/03/14 01:54:18;;;;;;;11.20;6.90;;;;;;;9.37;69.14;98485.15;131619;1254;113443;-71
2023/03/14 01:57:34;;;;;;;12.40;6.40;;;;;;;9.38;69.47;98465.45;131658;1253;114754;-70
2023/03/14 02:00:36;;;;;;;12.20;6.70;;;;;;;9.38;69.84;98446.53;131558;1253;114789;-69
2023/03/14 02:03:54;;;;;;;13.80;8.00;;;;;;;9.38;69.88;98444.58;131615;1256;114663;-70
2023/03/14 02:07:08;;;;;;;13.10;7.80;;;;;;;9.35;70.13;98442.17;131658;1254;115218;-71
2023/03/14 02:10:12;;;;;;;11.10;6.20;;;;;;;9.34;70.40;98431.02;131413;1257;114604;-70
2023/03/14 02:13:16;;;;;;;14.30;7.80;;;;;;;9.30;70.41;98425.42;131641;1253;114107;-70
2023/03/14 02:16:18;;;;;;;18.80;7.90;;;;;;;9.24;70.10;98416.77;131652;1253;114712;-71
2023/03/14 02:19:46;;;;;;;14.90;7.40;;;;;;;9.19;69.69;98383.84;131625;1253;114697;-71
2023/03/14 02:22:49;;;;;;;15.10;7.40;;;;;;;9.12;69.31;98375.95;131703;1253;115215;-71
2023/03/14 02:26:06;;;;;;;10.80;7.30;;;;;;;9.10;69.40;98389.65;131688;1253;114728;-71
2023/03/14 02:29:09;;;;;;;11.80;7.60;;;;;;;9.09;69.41;98386.55;131525;1259;114750;-71
2023/03/14 02:32:12;;;;;;;15.20;8.20;;;;;;;9.06;69.55;98379.30;131616;1254;113234;-71
2023/03/14 02:35:18;;;;;;;;;;;;;;;9.03;69.53;98374.52;131616;1254;129060;-71
2023/03/14 02:38:36;;;;;;;16.40;8.00;;;;;;;8.98;69.60;98362.40;131707;1255;114678;-71
2023/03/14 02:41:39;;;;;;;13.50;7.30;;;;;;;8.94;69.58;98353.08;131686;1256;114694;-70
2023/03/14 02:44:53;;;;;;;14.10;7.30;;;;;;;8.93;69.56;98349.09;131664;1254;114731;-71
2023/03/14 02:48:00;;;;;;;14.20;7.50;;;;;;;8.92;69.55;98343.14;131359;1254;114613;-70
2023/03/14 02:51:03;;;;;;;11.30;6.50;;;;;;;8.93;69.61;98339.66;131616;1254;128828;-70
2023/03/14 02:54:06;;;;;;;9.40;5.80;;;;;;;8.95;69.57;98351.79;131666;1254;113413;-70
2023/03/14 02:57:08;;;;;;;12.60;6.20;;;;;;;8.97;69.39;98352.00;131673;1254;114723;-71
2023/03/14 03:00:12;;;;;;;10.20;5.50;;;;;;;9.01;69.33;98348.55;131684;1257;115285;-70
2023/03/14 03:03:15;;;;;;;9.90;5.50;;;;;;;9.04;69.18;98340.63;131601;1259;114053;-71
2023/03/14 03:06:17;;;;;;;12.10;5.00;;;;;;;9.06;69.09;98319.48;131571;1254;114757;-71
2023/03/14 03:09:19;;;;;;;8.90;4.70;;;;;;;9.09;69.07;98300.32;131671;1254;114061;-71
2023/03/14 03:12:22;;;;;;;14.90;6.20;;;;;;;9.13;68.72;98291.31;131364;1254;115358;-71
2023/03/14 03:15:26;;;;;;;11.30;5.10;;;;;;;9.19;68.56;98300.86;131648;1255;114706;-71
2023/03/14 03:18:28;;;;;;;9.00;4.80;;;;;;;9.26;68.23;98292.16;131645;1254;114536;-70
2023/03/14 03:21:31;;;;;;;8.90;4.20;;;;;;;9.34;68.33;98293.66;131665;1256;114725;-71
2023/03/14 03:24:34;;;;;;;9.50;4.50;;;;;;;9.42;68.11;98298.34;131634;1254;114687;-72
2023/03/14 03:27:38;;;;;;;8.70;3.90;;;;;;;9.51;68.06;98283.61;131468;1255;113194;-70
2023/03/14 03:30:41;;;;;;;6.30;3.80;;;;;;;9.60;67.71;98282.36;131670;1253;114065;-71
2023/03/14 03:33:44;;;;;;;6.90;4.30;;;;;;;9.71;67.40;98277.83;131682;1254;115180;-70
2023/03/14 03:36:47;;;;;;;9.50;3.60;;;;;;;9.81;67.08;98282.75;131698;1253;114686;-71
2023/03/14 03:39:51;;;;;;;6.20;3.40;;;;;;;9.86;67.03;98277.66;131530;1253;114724;-70
2023/03/14 03:42:54;;;;;;;4.90;3.30;;;;;;;9.91;66.83;98279.13;131667;1253;114757;-71
2023/03/14 03:45:57;;;;;;;7.10;3.70;;;;;;;9.94;66.46;98275.64;131658;1253;113294;-70
2023/03/14 03:49:00;;;;;;;6.50;3.90;;;;;;;9.98;66.44;98272.32;131649;1253;115401;-71
2023/03/14 03:52:04;;;;;;;10.70;4.20;;;;;;;10.00;66.44;98259.81;131674;1256;113289;-69
2023/03/14 03:55:07;;;;;;;7.70;4.30;;;;;;;10.01;66.33;98241.89;131622;1254;114694;-71
2023/03/14 03:58:10;;;;;;;9.10;4.20;;;;;;;10.03;66.20;98241.04;131715;1257;114741;-71
2023/03/14 04:01:12;;;;;;;5.20;3.70;;;;;;;10.03;66.14;98250.32;131698;1253;114773;-71
2023/03/14 04:04:16;;;;;;;5.50;3.90;;;;;;;10.03;65.98;98256.53;131425;1253;113227;-71
2023/03/14 04:07:32;;;;;;;8.50;3.50;;;;;;;10.02;65.85;98248.05;131286;1253;116408;-71
2023/03/14 04:10:37;;;;;;;8.20;4.20;;;;;;;10.02;65.76;98247.73;131375;1253;127794;-71
2023/03/14 04:13:53;;;;;;;7.00;4.00;;;;;;;10.03;65.53;98252.46;131666;1253;114708;-69
2023/03/14 04:16:56;;;;;;;7.70;4.50;;;;;;;10.01;65.78;98241.36;131665;1253;115253;-71
2023/03/14 04:19:59;;;;;;;5.10;4.00;;;;;;;10.00;65.53;98231.10;131687;1253;113588;-71
2023/03/14 04:23:02;;;;;;;10.60;4.50;;;;;;;10.00;65.42;98221.64;131651;1253;114725;-68
2023/03/14 04:26:05;;;;;;;8.90;3.60;;;;;;;10.00;65.52;98215.92;131617;1253;114713;-68
2023/03/14 04:29:08;;;;;;;6.80;4.70;;;;;;;10.01;65.50;98215.34;131558;1253;113527;-68
2023/03/14 04:32:11;;;;;;;7.10;4.00;;;;;;;10.02;65.71;98208.81;131699;1254;115656;-70
2023/03/14 04:35:14;;;;;;;9.60;4.50;;;;;;;10.02;65.44;98190.83;131734;1253;114603;-70
2023/03/14 04:38:16;;;;;;;7.20;3.60;;;;;;;10.04;65.49;98188.35;131446;1259;113445;-72
2023/03/14 04:41:19;;;;;;;6.00;3.20;;;;;;;10.06;65.27;98183.04;131694;1253;116887;-71
2023/03/14 04:44:21;;;;;;;5.30;3.50;;;;;;;10.07;65.34;98173.30;131659;1254;114539;-72
2023/03/14 04:47:24;;;;;;;8.60;3.50;;;;;;;10.09;65.43;98181.17;131793;1253;113214;-71
2023/03/14 04:50:27;;;;;;;9.40;3.60;;;;;;;10.11;65.31;98195.42;131764;1253;114713;-72
2023/03/14 04:53:30;;;;;;;7.10;3.90;;;;;;;10.14;65.29;98209.30;131426;1258;114692;-72
2023/03/14 04:56:33;;;;;;;7.00;3.40;;;;;;;10.17;65.07;98201.05;131717;1253;113138;-70
2023/03/14 04:59:36;;;;;;;9.70;3.70;;;;;;;10.19;65.09;98191.19;131696;1253;114723;-70
2023/03/14 05:02:38;;;;;;;4.30;3.00;;;;;;;10.22;65.00;98183.50;131685;1254;114722;-72
2023/03/14 05:05:42;;;;;;;6.10;3.70;;;;;;;10.25;64.78;98189.10;131683;1257;114858;-71
2023/03/14 05:08:44;;;;;;;13.20;4.40;;;;;;;10.28;64.79;98191.88;131555;1253;114735;-72
2023/03/14 05:11:47;;;;;;;5.70;4.10;;;;;;;10.31;64.88;98193.08;131764;1254;114652;-71
2023/03/14 05:14:50;;;;;;;6.90;3.90;;;;;;;10.35;64.50;98195.27;131678;1253;114748;-71
2023/03/14 05:17:54;;;;;;;6.40;3.50;;;;;;;10.38;64.73;98195.59;131651;1253;114828;-69
2023/03/14 05:20:57;;;;;;;8.50;3.70;;;;;;;10.40;64.64;98181.86;131452;1257;127706;-70
2023/03/14 05:23:59;;;;;;;5.80;3.40;;;;;;;10.42;64.93;98175.86;131676;1257;113258;-70
2023/03/14 05:27:03;;;;;;;6.50;3.40;;;;;;;10.42;65.01;98174.04;131622;1253;114543;-70
2023/03/14 05:30:07;;;;;;;8.60;4.00;;;;;;;10.41;65.39;98170.71;131684;1253;115310;-70
2023/03/14 05:33:10;;;;;;;6.60;4.20;;;;;;;10.41;65.68;98147.33;131439;1253;114664;-70
2023/03/14 05:36:13;;;;;;;10.60;4.20;;;;;;;10.41;65.76;98146.45;131694;1253;114668;-70
2023/03/14 05:39:15;;;;;;;7.10;4.40;;;;;;;10.39;65.76;98150.54;131657;1253;114709;-72
2023/03/14 05:42:18;;;;;;;7.20;4.20;;;;;;;10.37;66.20;98156.91;131665;1254;113151;-70
2023/03/14 05:45:21;;;;;;;5.60;4.30;;;;;;;10.34;66.46;98161.29;131649;1257;114668;-70
2023/03/14 05:48:23;;;;;;;8.30;4.90;;;;;;;10.29;66.44;98171.66;131769;1254;115300;-69
2023/03/14 05:51:26;;;;;;;7.50;4.30;;;;;;;10.25;66.50;98176.46;131642;1257;114668;-71
2023/03/14 05:54:28;;;;;;;7.00;4.50;;;;;;;10.22;66.97;98184.73;131634;1258;115447;-70
2023/03/14 05:57:31;;;;;;;10.40;4.70;;;;;;;10.19;67.27;98189.80;131645;1254;114664;-69
2023/03/14 06:00:34;;;;;;;10.60;5.60;;;;;;;10.17;67.69;98184.03;131633;1253;114145;-70
2023/03/14 06:03:37;;;;;;;9.80;4.80;;;;;;;10.17;67.52;98195.34;131648;1253;114719;-69
2023/03/14 06:06:40;;;;;;;7.10;4.90;;;;;;;10.17;68.16;98192.80;131642;1258;114673;-70
2023/03/14 06:09:43;;;;;;;8.90;4.80;;;;;;;10.18;68.05;98182.38;131691;1257;114750;-70
2023/03/14 06:12:45;;;;;;;13.10;5.00;;;;;;;10.18;68.30;98180.36;131641;1254;129829;-70
2023/03/14 06:15:48;;;;;;;6.80;4.70;;;;;;;10.19;68.52;98191.40;131649;1257;114818;-68
2023/03/14 06:18:52;;;;;;;6.40;4.40;;;;;;;10.16;68.45;98196.44;131647;1253;114667;-68
2023/03/14 06:21:55;;;;;;;16.00;5.10;;;;;;;10.16;68.46;98196.65;131647;1253;114690;-69
2023/03/14 06:24:58;;;;;;;12.70;5.00;;;;;;;10.17;68.77;98184.92;131655;1253;114687;-69
2023/03/14 06:28:01;;;;;;;11.10;6.40;;;;;;;10.21;68.58;98185.20;131502;1253;113206;-70
2023/03/14 06:31:05;;;;;;;9.30;5.40;;;;;;;10.27;68.68;98196.61;131676;1253;114718;-70
2023/03/14 06:34:09;;;;;;;9.50;5.70;;;;;;;10.40;69.26;98211.09;131672;1257;114664;-68
2023/03/14 06:37:12;;;;;;;11.60;6.20;;;;;;;10.59;68.97;98221.35;131555;1253;113271;-68
2023/03/14 06:40:18;;;;;;;12.10;7.30;;;;;;;10.77;68.76;98225.25;131551;1253;113481;-70
2023/03/14 06:43:20;;;;;;;10.30;6.70;;;;;;;10.92;68.58;98218.42;131315;1253;127703;-71
2023/03/14 06:46:23;;;;;;;11.40;6.10;;;;;;;11.03;68.60;98222.47;131657;1253;114689;-71
2023/03/14 06:49:26;;;;;;;14.30;6.40;;;;;;;11.09;68.10;98216.59;131692;1253;114466;-70
2023/03/14 06:52:29;;;;;;;12.60;6.30;;;;;;;11.15;68.24;98214.37;131684;1254;115345;-71
2023/03/14 06:55:32;;;;;;;11.00;6.20;;;;;;;11.23;68.32;98220.98;131640;1257;114668;-69
2023/03/14 06:58:35;;;;;;;10.50;6.70;;;;;;;11.32;68.12;98225.25;131656;1253;114141;-69
2023/03/14 07:01:38;;;;;;;11.70;6.80;;;;;;;11.37;67.82;98225.67;131742;1254;114064;-70
2023/03/14 07:04:41;;;;;;;15.10;7.60;;;;;;;11.44;67.81;98237.84;131492;1253;115382;-71
2023/03/14 07:07:44;;;;;;;15.30;7.00;;;;;;;11.49;67.50;98238.03;131685;1253;114696;-71
2023/03/14 07:10:48;;;;;;;11.30;6.70;;;;;;;11.55;67.53;98233.44;131674;1253;113239;-70
2023/03/14 07:13:51;;;;;;;14.70;6.40;;;;;;;11.60;67.35;98217.05;131676;1253;114703;-71
2023/03/14 07:16:54;;;;;;;14.00;6.80;;;;;;;11.63;67.09;98218.77;131637;1253;114556;-70
2023/03/14 07:19:56;;;;;;;13.90;6.80;;;;;;;11.67;67.15;98225.10;131655;1254;113224;-70
2023/03/14 07:23:03;;;;;;;17.40;8.00;;;;;;;11.68;66.57;98228.91;131673;1253;114721;-70
2023/03/14 07:26:06;;;;;;;12.20;6.50;;;;;;;11.68;66.54;98236.03;131660;1259;114658;-70
2023/03/14 07:29:09;;;;;;;14.00;7.40;;;;;;;11.68;66.31;98243.56;131701;1258;113495;-71
2023/03/14 07:32:14;;;;;;;8.40;5.40;;;;;;;11.66;66.18;98243.16;131667;1254;114686;-70
2023/03/14 07:35:17;;;;;;;;;;;;;;;11.63;65.99;98236.66;131698;1253;114761;-70
2023/03/14 07:38:21;;;;;;;8.30;5.00;;;;;;;11.59;65.74;98228.63;131642;1253;114671;-70
2023/03/14 07:41:24;;;;;;;9.40;5.30;;;;;;;11.54;65.91;98218.89;131362;1259;114554;-68
2023/03/14 07:44:27;;;;;;;7.00;4.60;;;;;;;11.50;65.49;98219.91;131657;1254;114652;-69
2023/03/14 07:47:30;;;;;;;10.50;5.40;;;;;;;11.48;65.61;98224.07;131518;1253;114732;-71
2023/03/14 07:50:33;;;;;;;8.40;4.80;;;;;;;11.44;65.49;98210.60;131668;1254;114730;-71
2023/03/14 07:53:36;;;;;;;10.10;4.80;;;;;;;11.42;65.58;98188.44;131705;1254;114058;-70
2023/03/14 07:56:39;;;;;;;8.40;4.40;;;;;;;11.38;64.80;98183.94;131784;1253;114699;-70
2023/03/14 07:59:42;;;;;;;11.00;5.30;;;;;;;11.33;64.81;98188.71;131750;1253;113236;-70
2023/03/14 08:02:45;;;;;;;9.60;5.00;;;;;;;11.27;64.97;98196.72;131390;1254;114044;-70
2023/03/14 08:05:50;;;;;;;9.40;4.70;;;;;;;11.21;65.29;98210.60;131669;1258;114722;-70
2023/03/14 08:08:52;;;;;;;7.90;5.20;;;;;;;11.18;65.21;98213.06;131707;1254;114699;-70
2023/03/14 08:11:55;;;;;;;9.00;5.20;;;;;;;11.14;64.85;98203.36;131730;1253;115349;-70
2023/03/14 08:14:59;;;;;;;12.20;5.70;;;;;;;11.12;65.00;98193.73;131681;1253;113441;-68
2023/03/14 08:18:04;;;;;;;11.10;5.30;;;;;;;11.09;64.97;98192.86;131674;1253;113133;-69
2023/03/14 08:21:07;;;;;;;9.60;6.00;;;;;;;11.05;64.69;98208.41;131363;1259;127804;-70
2023/03/14 08:24:10;;;;;;;9.90;5.80;;;;;;;11.01;64.81;98222.52;131672;1254;115238;-69
2023/03/14 08:27:14;;;;;;;11.20;5.30;;;;;;;10.98;64.54;98217.08;131640;1253;114826;-69
2023/03/14 08:30:19;;;;;;;12.80;5.80;;;;;;;10.96;64.66;98221.64;131507;1253;113382;-70
2023/03/14 08:33:22;;;;;;;11.40;6.60;;;;;;;10.95;64.83;98229.98;131408;1254;114916;-70
2023/03/14 08:36:25;;;;;;;13.00;6.60;;;;;;;10.94;65.25;98241.33;131628;1254;114409;-70
2023/03/14 08:39:28;;;;;;;17.20;7.10;;;;;;;10.91;65.08;98250.82;131642;1254;114447;-71
2023/03/14 08:42:33;;;;;;;14.10;7.90;;;;;;;10.91;65.48;98259.08;131620;1253;114555;-71
2023/03/14 08:45:36;;;;;;;13.80;7.80;;;;;;;10.90;65.43;98266.12;131404;1254;113535;-70
2023/03/14 08:48:40;;;;;;;12.70;6.10;;;;;;;10.87;65.72;98272.41;131624;1253;113196;-70
2023/03/14 08:51:43;;;;;;;12.50;6.70;;;;;;;10.83;66.12;98282.22;131336;1254;126716;-69
2023/03/14 08:54:47;;;;;;;11.30;6.40;;;;;;;10.81;66.41;98287.97;131371;1254;116473;-69
2023/03/14 08:57:51;;;;;;;16.50;6.90;;;;;;;10.79;66.29;98292.17;131679;1259;114649;-69
2023/03/14 09:00:53;;;;;;;10.40;6.00;;;;;;;10.78;66.49;98293.30;131687;1253;114060;-69
2023/03/14 09:03:56;;;;;;;9.70;5.80;;;;;;;10.77;66.71;98280.34;131671;1254;115397;-69
2023/03/14 09:07:00;;;;;;;11.80;6.20;;;;;;;10.81;67.40;98276.27;131629;1254;113164;-70
2023/03/14 09:10:03;;;;;;;10.30;6.00;;;;;;;10.89;67.46;98268.17;131600;1259;115237;-70
2023/03/14 09:13:06;;;;;;;10.90;5.80;;;;;;;10.98;67.29;98275.27;131696;1254;114654;-69
2023/03/14 09:16:10;;;;;;;12.20;6.60;;;;;;;11.09;67.59;98275.09;131677;1253;113178;-69
2023/03/14 09:19:13;;;;;;;10.50;6.30;;;;;;;11.17;68.06;98273.46;131534;1253;114719;-70
2023/03/14 09:22:16;;;;;;;11.50;6.10;;;;;;;11.23;67.63;98272.44;131623;1254;115186;-71
2023/03/14 09:25:19;;;;;;;10.60;5.40;;;;;;;11.28;67.50;98274.89;131652;1254;114456;-70
2023/03/14 09:28:22;;;;;;;12.20;6.20;;;;;;;11.32;67.50;98277.36;131594;1253;115474;-70
2023/03/14 09:31:25;;;;;;;10.50;5.70;;;;;;;11.37;67.25;98274.34;131654;1254;114508;-71
2023/03/14 09:34:29;;;;;;;9.90;5.70;;;;;;;11.43;67.69;98280.42;131687;1254;114704;-71
2023/03/14 09:37:32;;;;;;;10.80;6.10;;;;;;;11.50;67.22;98283.94;131620;1253;114594;-71
2023/03/14 09:40:37;;;;;;;9.00;5.90;;;;;;;11.58;67.29;98294.34;131671;1254;113176;-70
2023/03/14 09:43:41;;;;;;;9.10;5.70;;;;;;;11.63;67.25;98296.23;131454;1262;114665;-71
2023/03/14 09:46:47;;;;;;;9.20;5.30;;;;;;;11.65;66.61;98301.61;131671;1254;114658;-70
2023/03/14 09:49:50;;;;;;;9.40;5.30;;;;;;;11.68;66.69;98319.44;131617;1257;114708;-69
2023/03/14 09:52:58;;;;;;;7.10;5.20;;;;;;;11.69;66.33;98326.98;131627;1253;114744;-69
2023/03/14 09:56:01;;;;;;;10.60;5.10;;;;;;;11.68;66.05;98329.20;131692;1258;115372;-71
2023/03/14 09:59:06;;;;;;;13.90;6.70;;;;;;;11.67;66.21;98330.36;131668;1258;114677;-69
2023/03/14 10:02:33;;;;;;;7.70;5.10;;;;;;;11.68;65.75;98324.58;131684;1259;114499;-69
2023/03/14 10:05:37;;;;;;;8.80;5.30;;;;;;;11.67;65.68;98322.16;131652;1253;114839;-69
2023/03/14 10:08:44;;;;;;;7.50;5.10;;;;;;;11.65;65.99;98319.80;131669;1254;127767;-68
2023/03/14 10:11:47;;;;;;;10.70;5.20;;;;;;;11.67;66.32;98319.66;131666;1254;114805;-70
2023/03/14 10:14:53;;;;;;;9.40;4.80;;;;;;;11.70;66.11;98320.15;131673;1254;115390;-71
2023/03/14 10:18:00;;;;;;;7.80;5.10;;;;;;;11.72;65.97;98321.61;131396;1255;114056;-72
2023/03/14 10:21:17;;;;;;;9.10;5.40;;;;;;;11.75;66.40;98317.02;131450;1261;113304;-70
2023/03/14 10:24:33;;;;;;;10.60;5.30;;;;;;;11.82;66.45;98315.48;131701;1254;129592;-71
2023/03/14 10:27:37;;;;;;;9.70;5.90;;;;;;;11.86;66.55;98313.17;131700;1258;115031;-70
2023/03/14 10:30:44;;;;;;;10.70;6.30;;;;;;;11.96;66.64;98309.52;131707;1259;114811;-70
2023/03/14 10:34:21;;;;;;;10.50;6.00;;;;;;;12.09;66.49;98305.32;131704;1260;114636;-70
2023/03/14 10:37:27;;;;;;;10.60;5.30;;;;;;;12.28;66.36;98300.77;131660;1254;113543;-71
2023/03/14 10:40:40;;;;;;;12.50;6.40;;;;;;;12.47;66.26;98303.65;131659;1258;129361;-70
2023/03/14 10:43:43;;;;;;;10.20;6.00;;;;;;;12.62;66.17;98296.86;131312;1259;115257;-71
2023/03/14 10:46:55;;;;;;;13.70;6.30;;;;;;;12.75;65.97;98289.27;131521;1253;115458;-69
2023/03/14 10:50:26;;;;;;;12.20;6.80;;;;;;;12.89;66.00;98281.52;131665;1259;113247;-71
2023/03/14 10:53:43;;;;;;;11.80;6.60;;;;;;;13.03;65.65;98273.06;131686;1259;113467;-71
2023/03/14 10:57:00;;;;;;;18.40;6.50;;;;;;;13.16;65.45;98273.15;131505;1255;127810;-71
2023/03/14 11:00:08;;;;;;;11.30;5.90;;;;;;;13.30;65.41;98270.27;131504;1260;115291;-71
2023/03/14 11:03:12;;;;;;;12.10;7.40;;;;;;;13.41;65.04;98273.02;131514;1261;114751;-70
2023/03/14 11:06:24;;;;;;;15.10;7.00;;;;;;;13.54;65.16;98274.70;131746;1259;114642;-70
2023/03/14 11:10:02;;;;;;;10.90;6.90;;;;;;;13.73;65.05;98274.73;131669;1258;114643;-71
2023/03/14 11:13:08;;;;;;;11.10;6.20;;;;;;;13.93;65.01;98275.98;131000;1260;127855;-71
2023/03/14 11:16:27;;;;;;;13.10;6.50;;;;;;;14.17;64.88;98271.71;131084;1260;115321;-70
2023/03/14 11:19:44;;;;;;;10.50;6.30;;;;;;;14.38;64.40;98268.79;130989;1265;114470;-71
2023/03/14 11:23:14;;;;;;;11.70;6.00;;;;;;;14.53;64.01;98258.88;131094;1263;114844;-70
2023/03/14 11:27:07;;;;;;;10.70;5.90;;;;;;;14.64;63.49;98257.45;131036;1263;113205;-69
2023/03/14 11:30:20;;;;;;;13.30;6.10;;;;;;;14.78;63.57;98246.07;130210;1268;127990;-71
2023/03/14 11:33:35;;;;;;;11.50;5.30;;;;;;;14.92;63.38;98239.77;130387;1274;115279;-71
2023/03/14 11:36:44;;;;;;;11.50;5.00;;;;;;;15.03;63.13;98238.33;130207;1271;114639;-71
2023/03/14 11:39:56;;;;;;;7.90;4.10;;;;;;;15.16;63.06;98232.13;130411;1272;114676;-71
2023/03/14 11:43:10;;;;;;;11.90;4.60;;;;;;;15.21;62.49;98227.88;130432;1272;114752;-71
2023/03/14 11:46:31;;;;;;;11.50;4.50;;;;;;;15.30;62.32;98232.17;130301;1272;127731;-70
2023/03/14 11:49:48;;;;;;;8.80;4.60;;;;;;;15.30;62.05;98238.86;130464;1263;113734;-70
2023/03/14 11:53:04;;;;;;;9.50;5.50;;;;;;;15.34;62.13;98242.54;130656;1271;114863;-71
2023/03/14 11:56:25;;;;;;;10.40;5.10;;;;;;;15.38;61.54;98229.81;130990;1262;114681;-70
2023/03/14 11:59:33;;;;;;;10.50;4.50;;;;;;;15.36;61.36;98220.83;130978;1266;113406;-70
2023/03/14 12:02:58;;;;;;;9.70;4.30;;;;;;;15.37;61.26;98223.39;131008;1263;129749;-70
2023/03/14 12:06:16;;;;;;;6.60;2.90;;;;;;;15.45;61.27;98229.25;131289;1259;114789;-69
2023/03/14 12:09:20;;;;;;;9.20;3.50;;;;;;;15.51;60.86;98225.39;131364;1263;115396;-69
2023/03/14 12:12:25;;;;;;;5.30;3.20;;;;;;;15.52;60.45;98228.51;131618;1259;113376;-70
2023/03/14 12:15:29;;;;;;;6.90;4.00;;;;;;;15.51;60.40;98231.89;131350;1260;114690;-71
2023/03/14 12:18:41;;;;;;;7.90;4.80;;;;;;;15.45;60.44;98230.15;131574;1259;128169;-70
2023/03/14 12:21:49;;;;;;;7.80;4.40;;;;;;;15.34;60.55;98226.55;131592;1259;114742;-71
2023/03/14 12:24:59;;;;;;;10.30;4.60;;;;;;;15.26;60.27;98228.52;131681;1259;113187;-71
2023/03/14 12:28:05;;;;;;;5.70;4.10;;;;;;;15.22;60.46;98222.81;131406;1254;114695;-70
2023/03/14 12:31:30;;;;;;;8.40;4.50;;;;;;;15.20;60.43;98229.31;131666;1254;113458;-69
2023/03/14 12:34:34;;;;;;;11.60;5.00;;;;;;;15.15;60.11;98222.20;131388;1254;126695;-69
2023/03/14 12:37:44;;;;;;;6.80;3.50;;;;;;;15.16;60.37;98219.20;131491;1254;115205;-70
2023/03/14 12:41:23;;;;;;;8.70;4.50;;;;;;;15.18;60.04;98216.17;131690;1258;114572;-71
2023/03/14 12:44:28;;;;;;;8.50;5.00;;;;;;;15.16;60.40;98212.02;130943;1266;114863;-69
2023/03/14 12:47:36;;;;;;;7.30;4.30;;;;;;;15.18;60.25;98217.60;130719;1264;114858;-69
2023/03/14 12:50:56;;;;;;;8.20;4.90;;;;;;;15.19;60.20;98212.82;130629;1268;127961;-70
2023/03/14 12:54:38;;;;;;;7.80;4.10;;;;;;;15.17;60.01;98212.49;130899;1264;115003;-69
2023/03/14 12:57:59;;;;;;;6.90;4.30;;;;;;;15.10;59.68;98212.10;130894;1266;114756;-70
2023/03/14 13:01:05;;;;;;;6.50;4.80;;;;;;;15.01;59.65;98216.80;130906;1266;114917;-70
2023/03/14 13:04:10;;;;;;;10.30;5.70;;;;;;;14.91;59.68;98212.20;130567;1265;113701;-70
2023/03/14 13:07:34;;;;;;;7.70;5.00;;;;;;;14.84;59.81;98207.15;130905;1264;127719;-70
2023/03/14 13:10:46;;;;;;;9.60;4.40;;;;;;;14.79;59.87;98206.07;130590;1268;114294;-70
2023/03/14 13:13:56;;;;;;;6.60;4.40;;;;;;;14.79;59.76;98199.91;130835;1263;113561;-70
2023/03/14 13:17:02;;;;;;;7.00;5.20;;;;;;;14.75;59.84;98201.11;131057;1267;114704;-69
2023/03/14 13:20:13;;;;;;;7.10;4.50;;;;;;;14.69;59.97;98199.70;130875;1263;113582;-69
2023/03/14 13:23:36;;;;;;;12.80;4.90;;;;;;;14.60;59.98;98194.67;131542;1260;127810;-69
2023/03/14 13:26:43;;;;;;;9.80;5.20;;;;;;;14.49;59.71;98193.17;131529;1254;263850;-71
2023/03/14 13:29:49;;;;;;;9.00;4.60;;;;;;;14.39;59.87;98194.54;131695;1255;114645;-70
2023/03/14 13:32:53;;;;;;;8.10;4.50;;;;;;;14.27;59.92;98190.02;132710;1255;114150;-70
2023/03/14 13:36:03;;;;;;;9.30;4.60;;;;;;;14.19;60.07;98191.85;131496;1259;113625;-70
2023/03/14 13:39:28;;;;;;;9.10;4.50;;;;;;;14.11;60.39;98194.02;131503;1254;128216;-70
2023/03/14 13:42:31;;;;;;;9.10;4.30;;;;;;;14.08;60.36;98197.27;131671;1254;114790;-70
2023/03/14 13:45:50;;;;;;;6.60;4.40;;;;;;;14.04;60.62;98191.35;131671;1258;114666;-69
2023/03/14 13:48:59;;;;;;;9.70;4.10;;;;;;;14.03;60.90;98190.73;131458;1257;114665;-68
2023/03/14 13:52:03;;;;;;;7.70;4.50;;;;;;;14.03;60.81;98187.83;131704;1255;114009;-68
2023/03/14 13:55:17;;;;;;;7.30;4.70;;;;;;;14.02;61.03;98184.70;131483;1258;127770;-67
2023/03/14 13:58:29;;;;;;;9.50;5.20;;;;;;;14.01;60.90;98185.19;131709;1254;114700;-68
2023/03/14 14:01:34;;;;;;;6.10;4.00;;;;;;;13.98;61.01;98189.16;131680;1257;114682;-68
2023/03/14 14:04:37;;;;;;;6.70;3.60;;;;;;;13.97;61.05;98188.80;131673;1255;114651;-68
2023/03/14 14:07:43;;;;;;;8.00;4.00;;;;;;;13.93;61.02;98183.27;131651;1254;113142;-68
2023/03/14 14:10:49;;;;;;;9.50;4.40;;;;;;;13.91;61.23;98186.32;131429;1254;128790;-68
2023/03/14 14:13:52;;;;;;;9.10;4.00;;;;;;;13.90;61.35;98187.48;131629;1256;115254;-68